sensor_id;sensor_type;location;lat;lon;timestamp;P1;durP1;ratioP1;P2;durP2;ratioP2
17890;SDS011;9071;48.220;14.480;2023-04-15T00:02:35;5.97;;;4.40;;
17890;SDS011;9071;48.220;14.480;2023-04-15T00:07:37;7.57;;;4.50;;
17890;SDS011;9071;48.220;14.480;2023-04-15T00:12:40;7.07;;;3.93;;
17890;SDS011;9071;48.220;14.480;2023-04-15T00:17:43;5.00;;;3.60;;
17890;SDS011;9071;48.220;14.480;2023-04-15T00:22:46;5.93;;;3.50;;
17890;SDS011;9071;48.220;14.480;2023-04-15T00:27:48;4.40;;;3.20;;
17890;SDS011;9071;48.220;14.480;2023-04-15T00:32:51;4.77;;;3.50;;
17890;SDS011;9071;48.220;14.480;2023-04-15T00:37:53;4.37;;;2.97;;
17890;SDS011;9071;48.220;14.480;2023-04-15T00:42:55;10.37;;;6.53;;
17890;SDS011;9071;48.220;14.480;2023-04-15T00:47:59;8.47;;;5.30;;
17890;SDS011;9071;48.220;14.480;2023-04-15T00:53:01;5.33;;;4.00;;
17890;SDS011;9071;48.220;14.480;2023-04-15T00:58:03;13.70;;;8.53;;
17890;SDS011;9071;48.220;14.480;2023-04-15T01:03:07;18.37;;;10.73;;
17890;SDS011;9071;48.220;14.480;2023-04-15T01:08:09;4.43;;;3.20;;
17890;SDS011;9071;48.220;14.480;2023-04-15T01:13:11;3.40;;;2.10;;
17890;SDS011;9071;48.220;14.480;2023-04-15T01:18:14;2.70;;;2.27;;
17890;SDS011;9071;48.220;14.480;2023-04-15T01:23:17;2.20;;;1.87;;
17890;SDS011;9071;48.220;14.480;2023-04-15T01:28:20;3.57;;;2.23;;
17890;SDS011;9071;48.220;14.480;2023-04-15T01:33:23;1.60;;;1.50;;
17890;SDS011;9071;48.220;14.480;2023-04-15T01:38:25;2.13;;;1.70;;
17890;SDS011;9071;48.220;14.480;2023-04-15T01:43:29;2.30;;;2.10;;
17890;SDS011;9071;48.220;14.480;2023-04-15T01:48:31;1.87;;;1.50;;
17890;SDS011;9071;48.220;14.480;2023-04-15T01:53:33;1.50;;;1.40;;
17890;SDS011;9071;48.220;14.480;2023-04-15T01:58:37;2.10;;;1.90;;
17890;SDS011;9071;48.220;14.480;2023-04-15T02:03:39;2.90;;;2.00;;
17890;SDS011;9071;48.220;14.480;2023-04-15T02:08:41;4.37;;;2.40;;
17890;SDS011;9071;48.220;14.480;2023-04-15T02:13:45;2.70;;;1.90;;
17890;SDS011;9071;48.220;14.480;2023-04-15T02:18:47;2.27;;;1.80;;
17890;SDS011;9071;48.220;14.480;2023-04-15T02:23:51;2.30;;;1.80;;
17890;SDS011;9071;48.220;14.480;2023-04-15T02:28:55;2.13;;;1.70;;
17890;SDS011;9071;48.220;14.480;2023-04-15T02:33:57;2.23;;;1.40;;
17890;SDS011;9071;48.220;14.480;2023-04-15T02:38:59;1.90;;;1.40;;
17890;SDS011;9071;48.220;14.480;2023-04-15T02:44:03;1.47;;;1.30;;
17890;SDS011;9071;48.220;14.480;2023-04-15T02:49:06;1.40;;;1.20;;
17890;SDS011;9071;48.220;14.480;2023-04-15T02:54:08;1.00;;;0.90;;
17890;SDS011;9071;48.220;14.480;2023-04-15T02:59:12;0.97;;;0.87;;
17890;SDS011;9071;48.220;14.480;2023-04-15T03:04:14;1.07;;;0.90;;
17890;SDS011;9071;48.220;14.480;2023-04-15T03:09:16;4.03;;;1.20;;
17890;SDS011;9071;48.220;14.480;2023-04-15T03:14:20;1.60;;;1.30;;
17890;SDS011;9071;48.220;14.480;2023-04-15T03:19:22;1.03;;;0.90;;
17890;SDS011;9071;48.220;14.480;2023-04-15T03:24:25;3.43;;;1.43;;
17890;SDS011;9071;48.220;14.480;2023-04-15T03:29:30;1.83;;;1.37;;
17890;SDS011;9071;48.220;14.480;2023-04-15T03:34:32;1.83;;;1.63;;
17890;SDS011;9071;48.220;14.480;2023-04-15T03:39:34;3.93;;;1.90;;
17890;SDS011;9071;48.220;14.480;2023-04-15T03:44:38;2.17;;;1.93;;
17890;SDS011;9071;48.220;14.480;2023-04-15T03:49:40;2.20;;;1.83;;
17890;SDS011;9071;48.220;14.480;2023-04-15T03:54:42;2.83;;;2.10;;
17890;SDS011;9071;48.220;14.480;2023-04-15T03:59:46;3.27;;;2.03;;
17890;SDS011;9071;48.220;14.480;2023-04-15T04:04:48;4.10;;;1.70;;
17890;SDS011;9071;48.220;14.480;2023-04-15T04:09:50;2.47;;;1.60;;
17890;SDS011;9071;48.220;14.480;2023-04-15T04:14:54;1.93;;;1.60;;
17890;SDS011;9071;48.220;14.480;2023-04-15T04:19:56;1.37;;;1.20;;
17890;SDS011;9071;48.220;14.480;2023-04-15T04:24:58;2.47;;;1.60;;
17890;SDS011;9071;48.220;14.480;2023-04-15T04:30:03;2.00;;;1.53;;
17890;SDS011;9071;48.220;14.480;2023-04-15T04:35:06;2.70;;;2.10;;
17890;SDS011;9071;48.220;14.480;2023-04-15T04:40:09;2.87;;;2.10;;
17890;SDS011;9071;48.220;14.480;2023-04-15T04:45:13;2.27;;;1.80;;
17890;SDS011;9071;48.220;14.480;2023-04-15T04:50:15;2.33;;;1.83;;
17890;SDS011;9071;48.220;14.480;2023-04-15T04:55:18;2.23;;;1.90;;
17890;SDS011;9071;48.220;14.480;2023-04-15T05:00:21;2.13;;;1.93;;
17890;SDS011;9071;48.220;14.480;2023-04-15T05:05:23;2.47;;;1.90;;
17890;SDS011;9071;48.220;14.480;2023-04-15T05:10:26;2.17;;;1.70;;
17890;SDS011;9071;48.220;14.480;2023-04-15T05:15:29;2.73;;;2.10;;
17890;SDS011;9071;48.220;14.480;2023-04-15T05:20:32;4.07;;;3.23;;
17890;SDS011;9071;48.220;14.480;2023-04-15T05:25:34;3.13;;;2.30;;
17890;SDS011;9071;48.220;14.480;2023-04-15T05:30:37;3.60;;;2.27;;
17890;SDS011;9071;48.220;14.480;2023-04-15T05:35:40;3.70;;;2.60;;
17890;SDS011;9071;48.220;14.480;2023-04-15T05:40:42;3.97;;;2.27;;
17890;SDS011;9071;48.220;14.480;2023-04-15T05:45:45;3.80;;;2.70;;
17890;SDS011;9071;48.220;14.480;2023-04-15T05:50:47;3.07;;;2.60;;
17890;SDS011;9071;48.220;14.480;2023-04-15T05:55:49;2.50;;;2.27;;
17890;SDS011;9071;48.220;14.480;2023-04-15T06:00:53;2.83;;;1.90;;
17890;SDS011;9071;48.220;14.480;2023-04-15T06:05:55;1.77;;;1.53;;
17890;SDS011;9071;48.220;14.480;2023-04-15T06:10:57;1.67;;;1.37;;
17890;SDS011;9071;48.220;14.480;2023-04-15T06:16:01;2.63;;;1.13;;
17890;SDS011;9071;48.220;14.480;2023-04-15T06:21:04;1.40;;;1.30;;
17890;SDS011;9071;48.220;14.480;2023-04-15T06:26:07;1.53;;;1.33;;
17890;SDS011;9071;48.220;14.480;2023-04-15T06:31:10;1.67;;;1.57;;
17890;SDS011;9071;48.220;14.480;2023-04-15T06:36:12;1.80;;;1.20;;
17890;SDS011;9071;48.220;14.480;2023-04-15T06:41:14;1.50;;;1.40;;
17890;SDS011;9071;48.220;14.480;2023-04-15T06:46:18;4.20;;;1.60;;
17890;SDS011;9071;48.220;14.480;2023-04-15T06:51:20;1.40;;;1.30;;
17890;SDS011;9071;48.220;14.480;2023-04-15T06:56:23;1.53;;;1.43;;
17890;SDS011;9071;48.220;14.480;2023-04-15T07:01:26;1.40;;;1.30;;
17890;SDS011;9071;48.220;14.480;2023-04-15T07:06:29;2.30;;;1.50;;
17890;SDS011;9071;48.220;14.480;2023-04-15T07:11:31;1.60;;;1.40;;
17890;SDS011;9071;48.220;14.480;2023-04-15T07:16:35;1.50;;;1.40;;
17890;SDS011;9071;48.220;14.480;2023-04-15T07:21:37;1.13;;;1.07;;
17890;SDS011;9071;48.220;14.480;2023-04-15T07:26:39;1.50;;;1.40;;
17890;SDS011;9071;48.220;14.480;2023-04-15T07:31:42;3.93;;;2.60;;
17890;SDS011;9071;48.220;14.480;2023-04-15T07:36:44;1.50;;;1.40;;
17890;SDS011;9071;48.220;14.480;2023-04-15T07:41:50;4.03;;;1.47;;
17890;SDS011;9071;48.220;14.480;2023-04-15T07:46:54;1.50;;;1.40;;
17890;SDS011;9071;48.220;14.480;2023-04-15T07:51:56;3.80;;;2.03;;
17890;SDS011;9071;48.220;14.480;2023-04-15T07:56:59;1.20;;;1.10;;
17890;SDS011;9071;48.220;14.480;2023-04-15T08:02:03;1.00;;;0.90;;
17890;SDS011;9071;48.220;14.480;2023-04-15T08:07:05;0.80;;;0.70;;
17890;SDS011;9071;48.220;14.480;2023-04-15T08:12:07;0.67;;;0.50;;
17890;SDS011;9071;48.220;14.480;2023-04-15T08:17:13;1.60;;;0.63;;
17890;SDS011;9071;48.220;14.480;2023-04-15T08:22:16;0.57;;;0.57;;
17890;SDS011;9071;48.220;14.480;2023-04-15T08:27:18;2.43;;;1.27;;
17890;SDS011;9071;48.220;14.480;2023-04-15T08:32:22;0.60;;;0.60;;
17890;SDS011;9071;48.220;14.480;2023-04-15T08:37:25;1.23;;;1.00;;
17890;SDS011;9071;48.220;14.480;2023-04-15T08:42:29;1.53;;;1.20;;
17890;SDS011;9071;48.220;14.480;2023-04-15T08:47:34;2.50;;;1.20;;
17890;SDS011;9071;48.220;14.480;2023-04-15T08:52:38;0.90;;;0.90;;
17890;SDS011;9071;48.220;14.480;2023-04-15T08:57:41;1.10;;;1.00;;
17890;SDS011;9071;48.220;14.480;2023-04-15T09:02:46;1.20;;;1.10;;
17890;SDS011;9071;48.220;14.480;2023-04-15T09:07:49;2.30;;;1.30;;
17890;SDS011;9071;48.220;14.480;2023-04-15T09:12:51;1.40;;;1.30;;
17890;SDS011;9071;48.220;14.480;2023-04-15T09:17:54;3.57;;;1.40;;
17890;SDS011;9071;48.220;14.480;2023-04-15T09:22:57;1.40;;;1.17;;
17890;SDS011;9071;48.220;14.480;2023-04-15T09:27:59;2.20;;;1.50;;
17890;SDS011;9071;48.220;14.480;2023-04-15T09:33:04;1.90;;;1.50;;
17890;SDS011;9071;48.220;14.480;2023-04-15T09:38:08;1.33;;;1.20;;
17890;SDS011;9071;48.220;14.480;2023-04-15T09:43:10;1.13;;;1.03;;
17890;SDS011;9071;48.220;14.480;2023-04-15T09:48:18;0.80;;;0.70;;
17890;SDS011;9071;48.220;14.480;2023-04-15T09:53:21;1.10;;;1.00;;
17890;SDS011;9071;48.220;14.480;2023-04-15T09:58:25;1.03;;;0.93;;
17890;SDS011;9071;48.220;14.480;2023-04-15T10:03:29;0.87;;;0.87;;
17890;SDS011;9071;48.220;14.480;2023-04-15T10:08:33;1.30;;;1.10;;
17890;SDS011;9071;48.220;14.480;2023-04-15T10:13:35;3.97;;;2.30;;
17890;SDS011;9071;48.220;14.480;2023-04-15T10:18:41;2.30;;;1.80;;
17890;SDS011;9071;48.220;14.480;2023-04-15T10:23:45;1.57;;;1.43;;
17890;SDS011;9071;48.220;14.480;2023-04-15T10:28:47;1.63;;;1.53;;
17890;SDS011;9071;48.220;14.480;2023-04-15T10:33:52;1.87;;;1.70;;
17890;SDS011;9071;48.220;14.480;2023-04-15T10:38:54;2.23;;;1.63;;
17890;SDS011;9071;48.220;14.480;2023-04-15T10:44:00;2.93;;;1.80;;
17890;SDS011;9071;48.220;14.480;2023-04-15T10:49:10;3.10;;;2.07;;
17890;SDS011;9071;48.220;14.480;2023-04-15T10:54:13;2.47;;;2.07;;
17890;SDS011;9071;48.220;14.480;2023-04-15T10:59:17;2.37;;;1.90;;
17890;SDS011;9071;48.220;14.480;2023-04-15T11:10:03;3.33;;;1.80;;
17890;SDS011;9071;48.220;14.480;2023-04-15T11:15:28;3.10;;;2.17;;
17890;SDS011;9071;48.220;14.480;2023-04-15T11:20:31;1.97;;;1.80;;
17890;SDS011;9071;48.220;14.480;2023-04-15T11:25:35;2.43;;;1.90;;
17890;SDS011;9071;48.220;14.480;2023-04-15T11:30:37;2.13;;;1.87;;
17890;SDS011;9071;48.220;14.480;2023-04-15T11:35:40;2.73;;;2.23;;
17890;SDS011;9071;48.220;14.480;2023-04-15T11:40:44;2.83;;;2.20;;
17890;SDS011;9071;48.220;14.480;2023-04-15T11:45:47;2.93;;;2.57;;
17890;SDS011;9071;48.220;14.480;2023-04-15T11:50:52;2.77;;;2.23;;
17890;SDS011;9071;48.220;14.480;2023-04-15T11:55:56;3.60;;;3.13;;
17890;SDS011;9071;48.220;14.480;2023-04-15T12:00:58;2.43;;;2.00;;
17890;SDS011;9071;48.220;14.480;2023-04-15T12:06:11;5.33;;;2.77;;
17890;SDS011;9071;48.220;14.480;2023-04-15T12:11:17;4.03;;;2.80;;
17890;SDS011;9071;48.220;14.480;2023-04-15T12:16:19;2.43;;;2.00;;
17890;SDS011;9071;48.220;14.480;2023-04-15T12:21:23;3.43;;;2.77;;
17890;SDS011;9071;48.220;14.480;2023-04-15T12:26:43;2.93;;;2.40;;
17890;SDS011;9071;48.220;14.480;2023-04-15T12:31:46;3.07;;;2.57;;
17890;SDS011;9071;48.220;14.480;2023-04-15T12:36:50;5.50;;;2.63;;
17890;SDS011;9071;48.220;14.480;2023-04-15T12:41:54;2.43;;;2.20;;
17890;SDS011;9071;48.220;14.480;2023-04-15T12:46:56;2.40;;;2.17;;
17890;SDS011;9071;48.220;14.480;2023-04-15T12:51:59;3.83;;;3.30;;
17890;SDS011;9071;48.220;14.480;2023-04-15T12:57:04;2.80;;;2.50;;
17890;SDS011;9071;48.220;14.480;2023-04-15T13:02:06;5.17;;;3.50;;
17890;SDS011;9071;48.220;14.480;2023-04-15T13:07:08;3.50;;;2.80;;
17890;SDS011;9071;48.220;14.480;2023-04-15T13:12:14;3.30;;;3.00;;
17890;SDS011;9071;48.220;14.480;2023-04-15T13:17:16;3.60;;;3.30;;
17890;SDS011;9071;48.220;14.480;2023-04-15T13:22:20;6.47;;;4.30;;
17890;SDS011;9071;48.220;14.480;2023-04-15T13:27:24;3.83;;;3.20;;
17890;SDS011;9071;48.220;14.480;2023-04-15T13:32:26;3.57;;;3.00;;
17890;SDS011;9071;48.220;14.480;2023-04-15T13:37:29;3.47;;;2.97;;
17890;SDS011;9071;48.220;14.480;2023-04-15T13:42:32;3.17;;;2.87;;
17890;SDS011;9071;48.220;14.480;2023-04-15T13:47:34;4.27;;;3.50;;
17890;SDS011;9071;48.220;14.480;2023-04-15T13:52:37;3.87;;;3.17;;
17890;SDS011;9071;48.220;14.480;2023-04-15T13:57:40;4.23;;;3.43;;
17890;SDS011;9071;48.220;14.480;2023-04-15T14:02:42;3.87;;;3.33;;
17890;SDS011;9071;48.220;14.480;2023-04-15T14:07:45;4.67;;;3.57;;
17890;SDS011;9071;48.220;14.480;2023-04-15T14:12:48;4.70;;;3.30;;
17890;SDS011;9071;48.220;14.480;2023-04-15T14:17:50;3.97;;;3.10;;
17890;SDS011;9071;48.220;14.480;2023-04-15T14:22:52;4.57;;;3.40;;
17890;SDS011;9071;48.220;14.480;2023-04-15T14:27:56;4.77;;;4.10;;
17890;SDS011;9071;48.220;14.480;2023-04-15T14:32:58;4.80;;;3.60;;
17890;SDS011;9071;48.220;14.480;2023-04-15T14:38:00;5.60;;;4.03;;
17890;SDS011;9071;48.220;14.480;2023-04-15T14:43:04;6.00;;;3.47;;
17890;SDS011;9071;48.220;14.480;2023-04-15T14:48:06;4.43;;;3.40;;
17890;SDS011;9071;48.220;14.480;2023-04-15T14:53:09;5.23;;;3.70;;
17890;SDS011;9071;48.220;14.480;2023-04-15T14:58:13;7.77;;;3.70;;
17890;SDS011;9071;48.220;14.480;2023-04-15T15:03:15;4.00;;;3.57;;
17890;SDS011;9071;48.220;14.480;2023-04-15T15:08:17;4.20;;;3.80;;
17890;SDS011;9071;48.220;14.480;2023-04-15T15:13:21;6.17;;;3.93;;
17890;SDS011;9071;48.220;14.480;2023-04-15T15:18:24;5.13;;;4.40;;
17890;SDS011;9071;48.220;14.480;2023-04-15T15:23:26;6.60;;;5.30;;
17890;SDS011;9071;48.220;14.480;2023-04-15T15:28:30;5.93;;;4.83;;
17890;SDS011;9071;48.220;14.480;2023-04-15T15:33:32;6.93;;;4.83;;
17890;SDS011;9071;48.220;14.480;2023-04-15T15:38:34;7.37;;;5.50;;
17890;SDS011;9071;48.220;14.480;2023-04-15T15:43:37;6.73;;;5.20;;
17890;SDS011;9071;48.220;14.480;2023-04-15T15:48:39;6.43;;;5.03;;
17890;SDS011;9071;48.220;14.480;2023-04-15T15:53:41;10.63;;;6.30;;
17890;SDS011;9071;48.220;14.480;2023-04-15T15:58:45;9.33;;;6.17;;
17890;SDS011;9071;48.220;14.480;2023-04-15T16:03:47;7.30;;;5.53;;
17890;SDS011;9071;48.220;14.480;2023-04-15T16:08:49;6.47;;;5.57;;
17890;SDS011;9071;48.220;14.480;2023-04-15T16:13:53;7.23;;;5.73;;
17890;SDS011;9071;48.220;14.480;2023-04-15T16:18:55;7.73;;;6.17;;
17890;SDS011;9071;48.220;14.480;2023-04-15T16:23:57;10.37;;;6.93;;
17890;SDS011;9071;48.220;14.480;2023-04-15T16:29:01;11.97;;;8.90;;
17890;SDS011;9071;48.220;14.480;2023-04-15T16:34:03;13.07;;;9.77;;
17890;SDS011;9071;48.220;14.480;2023-04-15T16:39:05;10.97;;;8.30;;
17890;SDS011;9071;48.220;14.480;2023-04-15T16:44:09;11.63;;;8.20;;
17890;SDS011;9071;48.220;14.480;2023-04-15T16:49:11;10.47;;;8.07;;
17890;SDS011;9071;48.220;14.480;2023-04-15T16:54:13;11.47;;;8.53;;
17890;SDS011;9071;48.220;14.480;2023-04-15T16:59:16;10.53;;;8.20;;
17890;SDS011;9071;48.220;14.480;2023-04-15T17:04:18;14.83;;;9.50;;
17890;SDS011;9071;48.220;14.480;2023-04-15T17:09:20;12.37;;;8.60;;
17890;SDS011;9071;48.220;14.480;2023-04-15T17:14:24;10.80;;;8.10;;
17890;SDS011;9071;48.220;14.480;2023-04-15T17:19:27;11.70;;;8.30;;
17890;SDS011;9071;48.220;14.480;2023-04-15T17:24:29;11.30;;;8.43;;
17890;SDS011;9071;48.220;14.480;2023-04-15T17:29:33;12.43;;;8.47;;
17890;SDS011;9071;48.220;14.480;2023-04-15T17:34:35;13.03;;;9.03;;
17890;SDS011;9071;48.220;14.480;2023-04-15T17:39:37;12.47;;;9.80;;
17890;SDS011;9071;48.220;14.480;2023-04-15T17:44:40;16.57;;;10.70;;
17890;SDS011;9071;48.220;14.480;2023-04-15T17:49:42;14.03;;;8.57;;
17890;SDS011;9071;48.220;14.480;2023-04-15T17:54:45;9.00;;;6.33;;
17890;SDS011;9071;48.220;14.480;2023-04-15T17:59:48;9.90;;;6.07;;
17890;SDS011;9071;48.220;14.480;2023-04-15T18:04:50;9.30;;;6.77;;
17890;SDS011;9071;48.220;14.480;2023-04-15T18:09:52;4.60;;;3.13;;
17890;SDS011;9071;48.220;14.480;2023-04-15T18:14:56;7.67;;;4.90;;
17890;SDS011;9071;48.220;14.480;2023-04-15T18:19:59;5.30;;;3.73;;
17890;SDS011;9071;48.220;14.480;2023-04-15T18:25:01;4.10;;;3.70;;
17890;SDS011;9071;48.220;14.480;2023-04-15T18:30:06;11.80;;;7.93;;
17890;SDS011;9071;48.220;14.480;2023-04-15T18:35:09;17.17;;;12.33;;
17890;SDS011;9071;48.220;14.480;2023-04-15T18:40:11;4.93;;;4.43;;
17890;SDS011;9071;48.220;14.480;2023-04-15T18:45:16;5.60;;;4.73;;
17890;SDS011;9071;48.220;14.480;2023-04-15T18:50:19;7.83;;;5.80;;
17890;SDS011;9071;48.220;14.480;2023-04-15T18:55:21;6.17;;;4.83;;
17890;SDS011;9071;48.220;14.480;2023-04-15T19:00:24;4.83;;;4.27;;
17890;SDS011;9071;48.220;14.480;2023-04-15T19:05:27;5.10;;;4.60;;
17890;SDS011;9071;48.220;14.480;2023-04-15T19:10:30;48.77;;;21.90;;
17890;SDS011;9071;48.220;14.480;2023-04-15T19:15:35;3.83;;;2.93;;
17890;SDS011;9071;48.220;14.480;2023-04-15T19:20:37;6.03;;;3.73;;
17890;SDS011;9071;48.220;14.480;2023-04-15T19:25:39;13.03;;;5.60;;
17890;SDS011;9071;48.220;14.480;2023-04-15T19:30:43;16.50;;;11.20;;
17890;SDS011;9071;48.220;14.480;2023-04-15T19:35:45;6.63;;;5.13;;
17890;SDS011;9071;48.220;14.480;2023-04-15T19:40:49;8.60;;;6.50;;
17890;SDS011;9071;48.220;14.480;2023-04-15T19:45:52;10.23;;;8.00;;
17890;SDS011;9071;48.220;14.480;2023-04-15T19:50:55;14.10;;;11.10;;
17890;SDS011;9071;48.220;14.480;2023-04-15T19:55:57;10.50;;;8.00;;
17890;SDS011;9071;48.220;14.480;2023-04-15T20:01:01;13.33;;;9.50;;
17890;SDS011;9071;48.220;14.480;2023-04-15T20:06:03;11.07;;;8.53;;
17890;SDS011;9071;48.220;14.480;2023-04-15T20:11:05;8.40;;;6.60;;
17890;SDS011;9071;48.220;14.480;2023-04-15T20:16:08;26.00;;;16.73;;
17890;SDS011;9071;48.220;14.480;2023-04-15T20:21:11;13.10;;;9.40;;
17890;SDS011;9071;48.220;14.480;2023-04-15T20:26:14;9.23;;;6.00;;
17890;SDS011;9071;48.220;14.480;2023-04-15T20:31:19;6.50;;;5.60;;
17890;SDS011;9071;48.220;14.480;2023-04-15T20:36:22;7.70;;;5.83;;
17890;SDS011;9071;48.220;14.480;2023-04-15T20:41:24;9.00;;;6.47;;
17890;SDS011;9071;48.220;14.480;2023-04-15T20:46:27;8.83;;;6.27;;
17890;SDS011;9071;48.220;14.480;2023-04-15T20:51:29;9.07;;;6.67;;
17890;SDS011;9071;48.220;14.480;2023-04-15T20:56:36;10.87;;;7.60;;
17890;SDS011;9071;48.220;14.480;2023-04-15T21:01:40;9.17;;;7.00;;
17890;SDS011;9071;48.220;14.480;2023-04-15T21:06:42;11.40;;;7.70;;
17890;SDS011;9071;48.220;14.480;2023-04-15T21:11:44;7.40;;;6.30;;
17890;SDS011;9071;48.220;14.480;2023-04-15T21:16:49;7.87;;;6.00;;
17890;SDS011;9071;48.220;14.480;2023-04-15T21:21:51;8.87;;;7.17;;
17890;SDS011;9071;48.220;14.480;2023-04-15T21:26:53;11.03;;;7.97;;
17890;SDS011;9071;48.220;14.480;2023-04-15T21:31:57;15.37;;;10.50;;
17890;SDS011;9071;48.220;14.480;2023-04-15T21:36:59;11.37;;;9.73;;
17890;SDS011;9071;48.220;14.480;2023-04-15T21:42:01;12.10;;;9.57;;
17890;SDS011;9071;48.220;14.480;2023-04-15T21:47:05;12.37;;;9.37;;
17890;SDS011;9071;48.220;14.480;2023-04-15T21:52:07;10.90;;;8.57;;
17890;SDS011;9071;48.220;14.480;2023-04-15T21:57:09;12.43;;;9.10;;
17890;SDS011;9071;48.220;14.480;2023-04-15T22:02:12;11.97;;;8.50;;
17890;SDS011;9071;48.220;14.480;2023-04-15T22:07:14;11.77;;;7.67;;
17890;SDS011;9071;48.220;14.480;2023-04-15T22:12:16;10.43;;;6.93;;
17890;SDS011;9071;48.220;14.480;2023-04-15T22:17:20;9.83;;;6.87;;
17890;SDS011;9071;48.220;14.480;2023-04-15T22:22:22;8.37;;;6.53;;
17890;SDS011;9071;48.220;14.480;2023-04-15T22:27:24;8.67;;;6.70;;
17890;SDS011;9071;48.220;14.480;2023-04-15T22:32:27;7.73;;;6.00;;
17890;SDS011;9071;48.220;14.480;2023-04-15T22:37:29;9.03;;;6.33;;
17890;SDS011;9071;48.220;14.480;2023-04-15T22:42:31;8.43;;;6.00;;
17890;SDS011;9071;48.220;14.480;2023-04-15T22:47:35;8.03;;;6.10;;
17890;SDS011;9071;48.220;14.480;2023-04-15T22:52:37;8.33;;;5.73;;
17890;SDS011;9071;48.220;14.480;2023-04-15T22:57:39;6.73;;;5.60;;
17890;SDS011;9071;48.220;14.480;2023-04-15T23:02:43;6.50;;;5.00;;
17890;SDS011;9071;48.220;14.480;2023-04-15T23:07:45;7.20;;;5.43;;
17890;SDS011;9071;48.220;14.480;2023-04-15T23:12:47;7.27;;;5.23;;
17890;SDS011;9071;48.220;14.480;2023-04-15T23:17:50;7.80;;;5.90;;
17890;SDS011;9071;48.220;14.480;2023-04-15T23:22:52;10.80;;;6.07;;
17890;SDS011;9071;48.220;14.480;2023-04-15T23:27:54;7.77;;;5.80;;
17890;SDS011;9071;48.220;14.480;2023-04-15T23:32:58;7.00;;;5.80;;
17890;SDS011;9071;48.220;14.480;2023-04-15T23:38:00;7.80;;;5.50;;
17890;SDS011;9071;48.220;14.480;2023-04-15T23:43:02;6.80;;;5.90;;
17890;SDS011;9071;48.220;14.480;2023-04-15T23:48:06;6.90;;;5.43;;
17890;SDS011;9071;48.220;14.480;2023-04-15T23:53:08;5.83;;;5.00;;
17890;SDS011;9071;48.220;14.480;2023-04-15T23:58:10;6.87;;;5.10;;
